createdAt,value
2019-05-11T00:03:51.246Z,95.12
2019-05-11T00:08:52.359Z,84.64
2019-05-11T00:13:52.518Z,73.55
2019-05-11T01:14:51.239Z,112.12
2019-05-11T01:19:59.586Z,126.48
2019-05-11T01:25:06.876Z,137.98
2019-05-11T01:30:28.091Z,117.30
2019-05-11T01:35:15.392Z,98.75
2019-05-11T01:40:23.688Z,104.49
2019-05-11T01:45:32.027Z,121.68
2019-05-11T01:50:53.121Z,113.30
2019-05-11T01:55:40.761Z,82.83
2019-05-11T02:01:01.911Z,106.80
2019-05-11T02:05:51.673Z,103.54
2019-05-11T02:10:56.885Z,89.61
2019-05-11T02:16:04.157Z,121.42
2019-05-11T02:21:12.443Z,83.31
2019-05-11T02:26:19.690Z,73.36
2019-05-11T02:31:27.758Z,107.90
2019-05-11T02:36:36.149Z,79.91
2019-05-11T02:41:44.269Z,93.90
2019-05-11T02:46:52.473Z,80.26
2019-05-11T02:52:00.590Z,93.38
2019-05-11T02:57:08.800Z,108.03
2019-05-11T03:02:16.960Z,134.00
2019-05-11T03:12:25.209Z,169.35
2019-05-11T03:17:33.572Z,157.05
2019-05-11T03:22:40.827Z,137.73
2019-05-11T03:27:48.047Z,112.08
2019-05-11T03:32:56.191Z,128.16
2019-05-11T03:38:04.535Z,130.40
2019-05-11T03:43:11.779Z,117.23
2019-05-11T03:48:33.070Z,120.17
2019-05-11T03:53:21.179Z,143.26
2019-05-11T03:58:29.673Z,129.38
2019-05-11T04:03:37.997Z,140.24
2019-05-11T04:08:58.172Z,112.47
2019-05-11T04:13:46.254Z,125.50
2019-05-11T04:18:54.552Z,188.11
2019-05-11T04:24:02.804Z,123.23
2019-05-11T04:29:10.066Z,156.84
2019-05-11T04:34:18.203Z,126.63
2019-05-11T04:39:26.475Z,148.54
2019-05-11T04:44:51.639Z,108.62
2019-05-11T04:49:35.118Z,119.47
2019-05-11T04:54:43.338Z,111.98
2019-05-11T04:59:51.798Z,96.41
2019-05-11T05:04:58.970Z,116.14
2019-05-11T05:10:20.041Z,66.29
2019-05-11T05:15:26.850Z,100.50
2019-05-11T05:20:14.189Z,121.72
2019-05-11T05:25:22.353Z,111.05
2019-05-11T05:30:31.242Z,93.51
2019-05-11T05:35:39.308Z,128.78
2019-05-11T05:40:47.640Z,87.90
2019-05-11T05:45:55.734Z,131.35
2019-05-11T05:51:04.104Z,158.51
2019-05-11T05:56:12.604Z,206.74
2019-05-11T06:01:22.713Z,138.33
2019-05-11T06:06:21.180Z,188.40
2019-05-11T06:11:29.364Z,136.73
2019-05-11T06:16:37.592Z,79.82
2019-05-11T06:21:44.824Z,124.90
2019-05-11T06:26:52.964Z,147.70
2019-05-11T06:32:14.089Z,83.54
2019-05-11T06:37:02.272Z,66.45
2019-05-11T06:42:10.931Z,87.94
2019-05-11T06:47:18.038Z,96.80
2019-05-11T06:52:39.283Z,59.35
2019-05-11T06:57:26.508Z,48.70
2019-05-11T07:02:34.853Z,43.78
2019-05-11T07:07:55.958Z,39.65
2019-05-11T07:12:57.332Z,44.54
2019-05-11T07:17:57.406Z,30.99
2019-05-11T07:22:59.248Z,35.24
2019-05-11T07:27:59.446Z,32.76
2019-05-11T07:33:01.115Z,34.69
2019-05-11T07:37:48.008Z,33.43
2019-05-11T07:42:55.025Z,32.83
2019-05-11T07:48:18.462Z,32.58
2019-05-11T07:53:03.727Z,34.96
2019-05-11T07:58:23.965Z,31.25
2019-05-11T08:03:12.604Z,31.85
2019-05-11T08:08:33.779Z,27.72
2019-05-11T08:13:22.229Z,25.63
2019-05-11T08:18:43.501Z,18.55
2019-05-11T08:23:30.928Z,17.17
2019-05-11T08:28:51.020Z,20.64
2019-05-11T08:33:52.392Z,18.07
2019-05-11T08:38:53.035Z,13.67
2019-05-11T08:43:41.795Z,14.43
2019-05-11T08:49:03.182Z,11.71
2019-05-11T08:53:50.589Z,11.39
2019-05-11T08:58:58.821Z,10.36
2019-05-11T09:04:05.603Z,9.35
2019-05-11T09:09:28.687Z,11.90
2019-05-11T09:14:14.498Z,10.82
2019-05-11T09:19:22.422Z,10.40
2019-05-11T09:29:44.725Z,10.39
2019-05-11T09:39:41.758Z,12.50
2019-05-11T09:45:02.236Z,10.62
2019-05-11T09:49:51.069Z,9.56
2019-05-11T10:00:00.113Z,10.15
2019-05-11T10:05:20.225Z,11.02
2019-05-11T10:10:09.147Z,8.61
2019-05-11T10:15:15.831Z,9.87
2019-05-11T10:20:23.600Z,9.47
2019-05-11T10:25:31.077Z,9.01
2019-05-11T10:30:52.468Z,8.86
2019-05-11T10:35:41.861Z,9.63
2019-05-11T10:40:49.216Z,9.07
2019-05-11T10:45:58.765Z,8.51
2019-05-11T10:51:18.542Z,6.51
2019-05-11T11:01:25.852Z,8.91
2019-05-11T11:06:13.243Z,7.51
2019-05-11T11:11:20.434Z,7.06
2019-05-11T11:16:43.035Z,6.22
2019-05-11T11:21:29.281Z,7.40
2019-05-11T11:31:41.539Z,9.05
2019-05-11T11:41:58.623Z,8.74
2019-05-11T11:52:08.498Z,5.47
2019-05-11T12:02:32.531Z,6.52
2019-05-11T12:07:33.805Z,5.83
2019-05-11T12:17:24.958Z,6.64
2019-05-11T12:27:38.283Z,4.16
2019-05-11T12:32:58.092Z,6.12
2019-05-11T12:37:58.694Z,6.52
2019-05-11T12:47:51.879Z,4.82
2019-05-11T12:52:59.120Z,3.32
2019-05-11T12:58:08.656Z,4.48
2019-05-11T13:03:15.172Z,3.59
2019-05-11T13:08:35.515Z,2.38
2019-05-11T13:18:39.502Z,2.09
2019-05-11T13:23:39.781Z,3.88
2019-05-11T13:28:40.111Z,1.92
2019-05-11T13:33:40.374Z,1.58
2019-05-11T13:38:40.603Z,4.15
2019-05-11T13:43:40.846Z,2.75
2019-05-11T13:48:28.214Z,3.28
2019-05-11T13:53:37.509Z,1.56
2019-05-11T13:58:57.811Z,2.69
2019-05-11T14:03:43.014Z,2.33
2019-05-11T14:08:50.623Z,2.26
2019-05-11T14:18:58.909Z,1.73
2019-05-11T14:24:19.134Z,1.05
2019-05-11T14:29:08.411Z,1.83
2019-05-11T14:34:28.366Z,1.90
2019-05-11T14:39:27.983Z,1.37
2019-05-11T14:44:14.540Z,2.33
2019-05-11T14:49:22.858Z,1.88
2019-05-11T14:54:43.908Z,1.39
2019-05-11T14:59:43.997Z,1.36
2019-05-11T15:04:45.293Z,2.12
2019-05-11T15:14:33.828Z,1.55
2019-05-11T15:19:54.116Z,2.57
2019-05-11T15:24:41.318Z,1.39
2019-05-11T15:29:51.860Z,2.13
2019-05-11T15:35:03.093Z,1.95
2019-05-11T15:45:04.806Z,2.72
2019-05-11T15:55:09.153Z,1.75
2019-05-11T16:00:09.443Z,2.18
2019-05-11T16:05:09.545Z,1.80
2019-05-11T16:09:57.953Z,2.23
2019-05-11T16:15:19.276Z,1.86
2019-05-11T16:20:05.746Z,1.80
2019-05-11T16:25:28.036Z,2.19
2019-05-11T16:30:14.304Z,2.69
2019-05-11T16:35:35.525Z,1.68
2019-05-11T16:40:22.857Z,2.37
2019-05-11T16:50:47.800Z,1.52
2019-05-11T16:55:48.990Z,1.91
2019-05-11T17:00:49.358Z,1.30
2019-05-11T17:05:38.268Z,2.42
2019-05-11T17:10:59.072Z,2.57
2019-05-11T17:15:58.447Z,3.88
2019-05-11T17:20:58.621Z,3.73
2019-05-11T17:25:45.568Z,2.68
2019-05-11T17:30:54.188Z,4.47
2019-05-11T17:36:03.992Z,3.33
2019-05-11T17:46:27.882Z,2.70
2019-05-11T17:51:21.284Z,2.84
2019-05-11T17:56:35.267Z,1.44
2019-05-11T18:06:39.331Z,2.81
2019-05-11T18:16:30.317Z,3.59
2019-05-11T18:21:52.600Z,3.01
2019-05-11T18:26:40.884Z,4.24
2019-05-11T18:31:50.495Z,3.68
2019-05-11T18:41:58.990Z,2.83
2019-05-11T18:47:09.518Z,2.85
2019-05-11T18:52:20.047Z,7.37
2019-05-11T18:57:08.138Z,3.99
2019-05-11T19:02:27.926Z,3.97
2019-05-11T19:12:19.039Z,3.82
2019-05-11T19:17:28.855Z,5.11
2019-05-11T19:27:50.934Z,3.12
2019-05-11T19:32:51.096Z,4.29
2019-05-11T19:37:39.540Z,3.85
2019-05-11T19:48:08.368Z,3.78
2019-05-11T19:53:08.476Z,3.13
2019-05-11T19:58:09.900Z,3.64
2019-05-11T20:03:10.490Z,5.75
2019-05-11T20:08:00.748Z,6.35
2019-05-11T20:18:12.992Z,9.17
2019-05-11T20:23:00.430Z,4.84
2019-05-11T20:28:20.435Z,6.63
2019-05-11T20:33:08.697Z,7.19
2019-05-11T20:48:38.220Z,8.52
2019-05-11T20:53:38.778Z,8.85
2019-05-11T21:03:42.218Z,7.62
2019-05-11T21:13:48.111Z,9.36
2019-05-11T21:18:33.595Z,10.04
2019-05-11T21:28:43.985Z,8.75
2019-05-11T21:34:04.366Z,8.54
2019-05-11T21:39:04.746Z,7.47
2019-05-11T21:44:04.906Z,11.10
2019-05-11T21:49:07.830Z,9.11
2019-05-11T21:59:10.463Z,8.64
2019-05-11T22:03:59.537Z,9.88
2019-05-11T22:09:19.548Z,9.23
2019-05-11T22:19:10.880Z,12.83
2019-05-11T22:24:31.245Z,8.70
2019-05-11T22:29:18.373Z,8.21
2019-05-11T22:34:28.382Z,9.46
2019-05-11T22:39:37.781Z,8.91
2019-05-11T22:44:44.122Z,7.75
2019-05-11T22:50:04.277Z,9.92
2019-05-11T22:54:52.803Z,9.84
2019-05-11T23:11:13.527Z,11.94
2019-05-11T23:26:22.932Z,11.63
2019-05-11T23:31:43.092Z,11.04
2019-05-11T23:36:44.176Z,9.93
2019-05-11T23:41:32.557Z,12.53
2019-05-11T23:46:53.019Z,11.56
2019-05-11T23:51:54.172Z,9.17
2019-05-11T23:56:58.325Z,11.60
